Portada
METAR-TAF:

METAR-TAF

Aeroports :

Txengdu, Xina

latitud: 30-40N, longitud: 104-01E, altitud: 508 m

Observació

L'informe es va fer fa 35 minuts, a les 18:00 UTC
Vent 2 kt amb direcció variable
Temperatura 18°C
Humitat 88%
Pressió 1016 hPa
Visibilitat: 7000 m

METAR: ZUUU 221800Z VRB01MPS 7000 NSC 18/16 Q1016 NOSIG

Hora: 02:35 (18:35 UTC)

Pronòstic

L'informe es va fer fa 4 hores i 19 minuts, a les 14:16 UTC
Pronòstic vàlid del 22 a les 18 UTC al 23 a les 18 UTC
Vent 6 kt del Sud/Sud-Oest
Visibilitat: 5000 m
Núvols disperses a una alçada de 5000 ft
boirina
Temporalment
l' 22 a les 23 UTC al 23 a les 01 UTC
Visibilitat: 2300 m

TAF: ZUUU 221416Z 2218/2318 20003MPS 5000 BR SCT050 TX22/2307Z TN16/2222Z TEMPO 2223/2301 2300

Observacions i pronòstics meteorològics de més de 4000 aeroports (METAR i TAF).

Les estacions disponibles són els punts grocs i vermells al mapa.

Posi el ratolí al punt desitjat per veure el nom de l'estació.

Feu clic per veure les observacions i els pronòstics meteorològics.

Per canviar el mapa: feu clic els botons verds amb una creu de color negre per apropar; al botó verd amb un guió per allunyar la imatge; o en les fletxes verdes per a mapes adjacents.


METAR-TAF: